Time;durP1;ratioP1;P1;durP2;ratioP2;P2;SDS_P1;SDS_P2;PMS_P1;PMS_P2;Temp;Humidity;BMP_temperature;BMP_pressure;BME280_temperature;BME280_humidity;BME280_pressure;Samples;Min_cycle;Max_cycle;Signal;HPM_P1;HPM_P2
2021/04/12 00:00:08;;;;;;;21.73;11.50;;;;;;;10.66;55.01;100102.44;4483313;32;34717;-89
2021/04/12 00:02:53;;;;;;;17.08;9.25;;;;;;;10.62;55.07;100100.81;4482291;32;34610;-88
2021/04/12 00:05:36;;;;;;;13.98;6.45;;;;;;;10.72;54.47;100094.25;4482353;32;33385;-88
2021/04/12 00:08:40;;;;;;;13.90;6.03;;;;;;;10.63;54.28;100097.25;4483283;32;33452;-88
2021/04/12 00:11:40;;;;;;;11.57;5.68;;;;;;;10.61;55.02;100093.84;4469378;32;34255;-88
2021/04/12 00:14:27;;;;;;;13.57;6.05;;;;;;;11.06;53.24;100087.63;4484541;32;34080;-88
2021/04/12 00:17:00;;;;;;;;;;;;;;;11.06;53.98;100080.53;4472114;31;34870;-87
2021/04/12 00:19:39;;;;;;;14.48;5.68;;;;;;;11.44;52.36;100071.03;4458307;32;33051;-89
2021/04/12 00:22:17;;;;;;;7.82;4.82;;;;;;;11.67;51.94;100082.38;4456517;32;35273;-89
2021/04/12 00:24:50;;;;;;;9.02;4.97;;;;;;;11.43;52.63;100079.88;4486139;32;33121;-89
2021/04/12 00:27:32;;;;;;;9.73;6.53;;;;;;;11.71;52.00;100083.97;4471241;32;35067;-89
2021/04/12 00:30:11;;;;;;;11.12;5.50;;;;;;;11.64;52.49;100075.44;4486190;32;34714;-88
2021/04/12 00:32:53;;;;;;;10.35;5.72;;;;;;;11.91;51.39;100070.75;4484801;32;33137;-87
2021/04/12 00:35:42;;;;;;;7.78;5.50;;;;;;;12.03;50.87;100066.69;4483404;32;34725;-87
2021/04/12 00:38:54;;;;;;;8.73;4.82;;;;;;;12.14;50.59;100066.19;4484500;32;33155;-87
2021/04/12 00:41:55;;;;;;;12.70;6.20;;;;;;;12.20;50.53;100071.19;4476923;32;33078;-88
2021/04/12 00:44:26;;;;;;;11.20;5.00;;;;;;;12.34;50.11;100060.81;4484720;32;34025;-88
2021/04/12 00:47:03;;;;;;;11.48;5.97;;;;;;;12.05;50.95;100068.31;4484508;32;33659;-88
2021/04/12 00:49:37;;;;;;;8.80;5.07;;;;;;;12.11;50.86;100063.72;4484898;32;34135;-87
2021/04/12 00:52:26;;;;;;;12.48;5.43;;;;;;;12.11;50.95;100066.34;4468356;32;35762;-87
2021/04/12 00:55:09;;;;;;;12.63;5.82;;;;;;;12.34;50.41;100052.88;4472622;32;35241;-87
2021/04/12 00:57:50;;;;;;;9.98;5.20;;;;;;;12.26;50.58;100055.06;4480166;31;33672;-87
2021/04/12 01:00:24;;;;;;;8.90;4.68;;;;;;;12.11;50.92;100058.41;4469661;32;34223;-87
2021/04/12 01:02:57;;;;;;;9.77;5.32;;;;;;;11.95;51.30;100061.75;4484084;32;33671;-86
2021/04/12 01:05:47;;;;;;;9.73;5.60;;;;;;;12.16;50.78;100056.41;4482826;32;34246;-90
2021/04/12 01:08:18;;;;;;;12.48;5.53;;;;;;;11.66;52.14;100054.22;4458928;31;34351;-90
2021/04/12 01:11:03;;;;;;;8.65;4.82;;;;;;;12.00;51.09;100048.28;4458867;32;34877;-90
2021/04/12 01:14:02;;;;;;;14.38;5.85;;;;;;;11.89;51.24;100053.22;4467262;32;34697;-90
2021/04/12 01:17:07;;;;;;;14.15;5.78;;;;;;;12.03;50.81;100059.59;4471311;32;34374;-90
2021/04/12 01:20:08;;;;;;;8.75;5.35;;;;;;;12.17;50.36;100055.47;4484417;32;34084;-90
2021/04/12 01:23:14;;;;;;;10.00;4.82;;;;;;;11.82;51.27;100054.37;4484124;32;32840;-90
2021/04/12 01:25:51;;;;;;;10.27;5.30;;;;;;;12.08;50.53;100061.19;4484177;32;34646;-89
2021/04/12 01:28:33;;;;;;;11.07;5.78;;;;;;;11.83;50.99;100061.44;4484289;32;34765;-88
2021/04/12 01:31:36;;;;;;;7.90;5.05;;;;;;;11.81;51.20;100056.16;4451925;32;33249;-87
2021/04/12 01:34:19;;;;;;;11.88;4.85;;;;;;;11.85;51.02;100055.16;4426383;32;32869;-87
2021/04/12 01:36:55;;;;;;;14.85;5.12;;;;;;;11.99;50.70;100047.44;4484299;32;33323;-87
2021/04/12 01:39:29;;;;;;;17.58;5.65;;;;;;;11.96;50.73;100031.72;4471284;32;34641;-88
2021/04/12 01:42:17;;;;;;;7.37;4.75;;;;;;;11.84;50.95;100034.91;4483860;32;33770;-88
2021/04/12 01:45:20;;;;;;;9.93;5.05;;;;;;;11.58;51.77;100040.47;4484315;32;32403;-88
2021/04/12 01:47:58;;;;;;;9.45;5.05;;;;;;;11.41;52.35;100039.44;4419043;32;34111;-88
2021/04/12 01:50:27;;;;;;;9.40;5.45;;;;;;;11.38;52.41;100030.75;4471661;32;33983;-88
2021/04/12 01:53:16;;;;;;;8.10;4.87;;;;;;;11.22;52.81;100033.22;4482655;32;33839;-88
2021/04/12 01:55:55;;;;;;;9.45;5.60;;;;;;;11.22;52.79;100035.84;4481414;31;34318;-88
2021/04/12 01:58:36;;;;;;;9.25;5.95;;;;;;;11.24;52.63;100031.34;4477292;31;33860;-88
2021/04/12 02:01:09;;;;;;;10.70;5.50;;;;;;;11.31;52.32;100038.09;4483025;32;33703;-89
2021/04/12 02:04:00;;;;;;;10.20;6.15;;;;;;;11.01;53.11;100041.13;4469911;32;34377;-89
2021/04/12 02:06:31;;;;;;;7.97;5.60;;;;;;;11.08;53.05;100038.22;4470493;32;33281;-89
2021/04/12 02:09:17;;;;;;;9.18;5.62;;;;;;;11.11;52.66;100019.56;4470659;32;35294;-89
2021/04/12 02:12:16;;;;;;;10.77;4.65;;;;;;;10.77;53.67;100020.97;4481796;32;34705;-89
2021/04/12 02:14:43;;;;;;;10.27;5.40;;;;;;;10.97;52.87;100026.31;4484418;32;34151;-91
2021/04/12 02:17:34;;;;;;;11.20;5.43;;;;;;;10.81;53.20;100019.06;4484635;32;32745;-89
2021/04/12 02:20:13;;;;;;;11.07;5.37;;;;;;;10.52;54.17;100016.69;4451877;32;33451;-89
2021/04/12 02:22:52;;;;;;;10.25;4.95;;;;;;;10.82;53.37;100032.22;4463366;32;35205;-89
2021/04/12 02:25:39;;;;;;;8.05;5.45;;;;;;;11.01;53.12;100024.38;4470274;32;33517;-89
2021/04/12 02:28:28;;;;;;;8.60;4.87;;;;;;;10.72;53.68;100015.03;4455917;32;34035;-89
2021/04/12 02:31:24;;;;;;;10.68;5.30;;;;;;;10.69;53.43;100008.09;4484083;32;33148;-89
2021/04/12 02:33:58;;;;;;;7.97;5.07;;;;;;;10.66;53.45;100005.56;4458092;32;34674;-89
2021/04/12 02:36:47;;;;;;;8.73;5.40;;;;;;;10.50;53.69;100012.41;4470709;31;33397;-88
2021/04/12 02:39:30;;;;;;;8.82;5.47;;;;;;;10.48;53.77;100004.53;4466320;32;35231;-89
2021/04/12 02:42:16;;;;;;;14.23;6.00;;;;;;;10.37;54.17;100006.75;4483320;31;33756;-89
2021/04/12 02:44:49;;;;;;;7.62;5.82;;;;;;;10.44;54.31;100004.72;4470772;32;33543;-89
2021/04/12 02:47:54;;;;;;;12.07;5.18;;;;;;;10.56;54.19;100011.31;4483712;32;34931;-89
2021/04/12 02:50:33;;;;;;;11.88;5.72;;;;;;;10.47;54.42;100012.53;4469102;32;34191;-89
2021/04/12 02:53:13;;;;;;;9.55;5.45;;;;;;;9.94;55.50;100008.38;4468553;32;34520;-89
2021/04/12 02:55:42;;;;;;;9.25;5.20;;;;;;;9.80;55.83;100007.19;4482723;32;33102;-90
2021/04/12 02:58:31;;;;;;;14.07;6.18;;;;;;;9.54;56.47;100008.97;4455219;32;34295;-86
2021/04/12 03:01:21;;;;;;;7.03;5.00;;;;;;;9.92;55.46;100002.31;4471313;32;34306;-85
2021/04/12 03:04:25;;;;;;;12.25;6.05;;;;;;;9.95;55.19;99999.53;4481789;32;33679;-85
2021/04/12 03:07:14;;;;;;;9.35;5.25;;;;;;;9.91;55.13;99997.94;4484526;32;33754;-85
2021/04/12 03:09:59;;;;;;;13.57;5.65;;;;;;;9.85;55.27;100002.59;4482020;31;33308;-88
2021/04/12 03:12:50;;;;;;;11.00;6.03;;;;;;;9.55;56.33;100007.22;4468349;32;33206;-90
2021/04/12 03:15:43;;;;;;;13.95;6.03;;;;;;;9.31;57.44;100001.91;4482457;31;33673;-89
2021/04/12 03:18:39;;;;;;;8.57;5.80;;;;;;;9.26;57.67;99995.94;4468653;32;34739;-89
2021/04/12 03:21:21;;;;;;;11.68;5.68;;;;;;;9.26;57.41;99998.59;4484270;32;33849;-89
2021/04/12 03:23:51;;;;;;;;;;;;;;;9.40;56.79;99990.16;4482488;32;33046;-89
2021/04/12 03:26:44;;;;;;;8.55;5.55;;;;;;;9.16;57.54;99997.16;4483358;32;33790;-88
2021/04/12 03:29:42;;;;;;;14.13;6.97;;;;;;;8.82;58.99;100007.97;4484307;32;33278;-88
2021/04/12 03:32:25;;;;;;;9.52;6.87;;;;;;;9.00;58.89;100007.38;4470040;32;33665;-89
2021/04/12 03:35:03;;;;;;;11.12;5.60;;;;;;;9.23;57.85;100004.81;4483054;32;33218;-89
2021/04/12 03:37:30;;;;;;;10.55;5.85;;;;;;;9.34;57.28;100004.41;4470468;32;34744;-88
2021/04/12 03:40:21;;;;;;;16.98;6.55;;;;;;;8.98;58.24;100002.16;4485088;32;33434;-88
2021/04/12 03:43:27;;;;;;;12.37;6.53;;;;;;;8.94;58.22;100007.59;4472661;32;34667;-88
2021/04/12 03:46:07;;;;;;;13.65;6.57;;;;;;;8.83;58.73;100005.31;4468625;32;33898;-88
2021/04/12 03:49:12;;;;;;;14.87;6.65;;;;;;;9.02;58.29;100007.31;4483188;32;33598;-87
2021/04/12 03:52:01;;;;;;;12.25;6.47;;;;;;;8.96;58.31;100009.22;4483298;32;33698;-87
2021/04/12 03:54:34;;;;;;;14.73;7.07;;;;;;;9.04;57.98;100019.53;4483016;32;34445;-88
2021/04/12 03:57:29;;;;;;;11.52;6.57;;;;;;;8.95;58.28;100014.56;4468102;32;33072;-88
2021/04/12 04:00:21;;;;;;;10.52;6.30;;;;;;;9.04;58.20;100008.12;4467302;32;35439;-88
2021/04/12 04:02:54;;;;;;;;;;;;;;;9.07;58.18;100008.91;4470769;31;34909;-88
2021/04/12 04:05:35;;;;;;;14.75;7.03;;;;;;;8.94;58.50;100000.53;4483695;32;33749;-88
2021/04/12 04:08:30;;;;;;;17.58;7.62;;;;;;;8.86;58.74;99999.94;4466916;32;33755;-88
2021/04/12 04:11:09;;;;;;;10.93;6.97;;;;;;;8.90;59.03;100013.84;4484241;32;33683;-88
2021/04/12 04:14:11;;;;;;;13.48;7.43;;;;;;;8.90;58.79;100006.81;4482950;31;35523;-88
2021/04/12 04:17:07;;;;;;;12.77;7.90;;;;;;;8.80;59.36;100010.69;4469685;32;35502;-90
2021/04/12 04:19:50;;;;;;;16.87;7.45;;;;;;;8.63;60.10;100023.50;4463620;32;33348;-88
2021/04/12 04:22:45;;;;;;;11.80;7.32;;;;;;;8.40;60.57;100032.12;4484291;32;33613;-89
2021/04/12 04:25:39;;;;;;;22.67;8.30;;;;;;;8.83;59.49;100025.50;4480584;31;34524;-88
2021/04/12 04:28:39;;;;;;;20.08;8.25;;;;;;;8.77;59.42;100026.56;4464642;32;33399;-89
2021/04/12 04:31:26;;;;;;;13.77;8.23;;;;;;;8.69;59.68;100012.81;4466814;32;33697;-89
2021/04/12 04:34:12;;;;;;;13.82;7.45;;;;;;;8.69;59.95;100002.28;4468318;32;34057;-89
2021/04/12 04:36:58;;;;;;;17.60;7.90;;;;;;;8.72;60.18;100002.16;4479924;31;33255;-88
2021/04/12 04:39:49;;;;;;;13.32;7.28;;;;;;;8.90;59.69;100012.09;4463205;31;34114;-89
2021/04/12 04:42:45;;;;;;;23.10;8.40;;;;;;;8.93;59.60;100019.91;4464555;32;33374;-88
2021/04/12 04:45:30;;;;;;;15.75;7.00;;;;;;;9.17;58.89;100022.63;4485788;31;33394;-88
2021/04/12 04:48:05;;;;;;;17.58;8.00;;;;;;;9.07;59.31;100023.81;4464278;32;34687;-88
2021/04/12 04:50:55;;;;;;;16.77;8.48;;;;;;;9.42;58.67;100026.09;4478269;31;31716;-89
2021/04/12 04:53:53;;;;;;;19.12;8.50;;;;;;;9.41;58.89;100029.66;4475019;32;33374;-88
2021/04/12 04:56:48;;;;;;;15.75;8.25;;;;;;;9.55;58.68;100028.31;4473486;31;34684;-87
2021/04/12 04:59:53;;;;;;;14.38;9.23;;;;;;;9.58;58.78;100026.41;4480592;32;34727;-87
2021/04/12 05:02:42;;;;;;;15.45;8.23;;;;;;;9.80;58.36;100031.78;4482389;31;33466;-86
2021/04/12 05:05:29;;;;;;;17.62;9.55;;;;;;;9.85;58.57;100035.09;4482185;32;33209;-89
2021/04/12 05:08:40;;;;;;;17.60;9.40;;;;;;;10.16;58.25;100029.53;4481059;31;34246;-88
2021/04/12 05:11:23;;;;;;;14.32;8.63;;;;;;;10.20;57.76;100046.09;4466057;31;33966;-87
2021/04/12 05:14:06;;;;;;;13.95;8.05;;;;;;;10.50;57.28;100034.41;4476596;31;31499;-89
2021/04/12 05:17:04;;;;;;;14.85;8.20;;;;;;;10.83;56.98;100036.59;4467941;32;35201;-88
2021/04/12 05:19:38;;;;;;;22.48;8.88;;;;;;;10.84;57.01;100045.38;4460512;31;33603;-89
2021/04/12 05:22:34;;;;;;;18.58;8.30;;;;;;;11.17;56.44;100036.03;4469165;32;34296;-87
2021/04/12 05:25:31;;;;;;;16.92;8.98;;;;;;;10.73;57.71;100046.69;4479037;31;33603;-86
2021/04/12 05:28:18;;;;;;;15.27;8.85;;;;;;;10.82;57.42;100034.84;4449031;32;32449;-88
2021/04/12 05:31:16;;;;;;;13.88;7.65;;;;;;;10.71;57.49;100037.94;4478999;32;33775;-88
2021/04/12 05:34:21;;;;;;;20.42;9.00;;;;;;;10.87;57.33;100038.19;4474061;31;33982;-88
2021/04/12 05:37:21;;;;;;;19.87;8.50;;;;;;;11.05;56.87;100030.41;4469864;32;34576;-89
2021/04/12 05:40:08;;;;;;;19.67;8.68;;;;;;;10.86;58.05;100031.16;4454719;32;34292;-89
2021/04/12 05:42:54;;;;;;;16.33;8.57;;;;;;;10.93;57.58;100037.94;4477464;32;33253;-88
2021/04/12 05:45:37;;;;;;;16.23;8.85;;;;;;;10.60;58.19;100040.16;4466138;32;34486;-88
2021/04/12 05:48:30;;;;;;;15.32;9.40;;;;;;;10.68;58.41;100032.81;4466011;32;33977;-88
2021/04/12 05:51:09;;;;;;;16.50;8.27;;;;;;;10.72;58.35;100029.09;4469706;32;32582;-88
2021/04/12 05:53:58;;;;;;;16.42;10.38;;;;;;;11.26;56.72;100035.66;4472303;32;34150;-88
2021/04/12 05:56:57;;;;;;;16.83;9.00;;;;;;;11.37;56.64;100032.53;4472352;32;34725;-88
2021/04/12 05:59:49;;;;;;;27.62;11.43;;;;;;;11.76;55.87;100034.34;4464052;32;33409;-87
2021/04/12 06:02:24;;;;;;;21.80;10.65;;;;;;;11.91;55.35;100033.69;4469728;32;31901;-87
2021/04/12 06:04:59;;;;;;;18.83;9.63;;;;;;;12.08;53.66;100034.72;4454946;32;34198;-87
2021/04/12 06:08:11;;;;;;;21.15;9.93;;;;;;;12.18;53.87;100022.78;4478582;32;31525;-87
2021/04/12 06:10:51;;;;;;;25.95;10.20;;;;;;;12.47;52.47;100030.19;4482745;31;33425;-87
2021/04/12 06:13:39;;;;;;;20.33;9.02;;;;;;;12.86;51.71;100018.59;4461878;31;34079;-88
2021/04/12 06:16:44;;;;;;;19.23;9.40;;;;;;;13.26;50.44;100017.47;4465718;32;35322;-87
2021/04/12 06:19:40;;;;;;;21.80;11.57;;;;;;;13.06;50.72;100014.97;4478543;32;33964;-87
2021/04/12 06:22:38;;;;;;;18.80;10.80;;;;;;;13.55;49.72;100010.66;4476840;32;36434;-87
2021/04/12 06:25:40;;;;;;;22.60;10.10;;;;;;;13.42;49.34;100004.28;4464887;32;34416;-87
2021/04/12 06:28:38;;;;;;;17.62;9.93;;;;;;;13.64;48.97;100003.16;4479192;32;33588;-87
2021/04/12 06:31:24;;;;;;;14.18;8.40;;;;;;;13.64;49.35;100003.16;4471479;31;33630;-88
2021/04/12 06:34:28;;;;;;;9.75;6.57;;;;;;;14.20;49.27;99999.25;4473264;31;33229;-87
2021/04/12 06:37:00;;;;;;;11.85;7.10;;;;;;;14.09;46.95;99998.00;4471991;32;34423;-88
2021/04/12 06:39:38;;;;;;;20.30;7.15;;;;;;;14.33;47.34;100001.09;4463553;32;35367;-88
2021/04/12 06:42:44;;;;;;;11.63;6.35;;;;;;;14.75;46.38;100007.59;4463745;32;35465;-87
2021/04/12 06:45:30;;;;;;;10.65;6.30;;;;;;;14.66;45.17;100017.91;4474784;32;34269;-88
2021/04/12 06:48:23;;;;;;;14.18;6.68;;;;;;;14.68;45.32;100005.41;4471576;32;32934;-87
2021/04/12 06:51:24;;;;;;;12.10;6.25;;;;;;;14.63;45.00;100010.13;4465959;32;35893;-87
2021/04/12 06:54:29;;;;;;;15.00;6.32;;;;;;;14.44;45.57;100018.25;4465738;31;33723;-87
2021/04/12 06:57:31;;;;;;;15.02;5.97;;;;;;;14.75;44.86;100002.28;4475339;31;35802;-86
2021/04/12 07:00:01;;;;;;;11.12;6.12;;;;;;;14.97;44.33;100007.22;4460608;32;35127;-87
2021/04/12 07:03:11;;;;;;;13.68;6.25;;;;;;;15.02;44.63;100005.16;4465313;31;32573;-86
2021/04/12 07:05:48;;;;;;;10.95;6.57;;;;;;;15.68;44.35;100013.69;4469311;31;31718;-87
2021/04/12 07:08:38;;;;;;;13.77;7.07;;;;;;;15.65;42.66;100019.19;4477555;32;32656;-85
2021/04/12 07:11:29;;;;;;;13.57;6.15;;;;;;;16.23;42.28;100002.22;4477981;31;33198;-86
2021/04/12 07:14:41;;;;;;;10.60;6.20;;;;;;;15.96;42.46;100010.19;4458084;32;31920;-87
2021/04/12 07:17:34;;;;;;;13.07;6.85;;;;;;;15.86;42.82;100020.53;4464724;32;32788;-87
2021/04/12 07:20:24;;;;;;;15.55;6.40;;;;;;;16.52;42.11;100006.56;4478403;32;34456;-86
2021/04/12 07:23:13;;;;;;;11.30;6.12;;;;;;;16.19;42.09;100011.38;4470840;31;33580;-85
2021/04/12 07:26:30;;;;;;;17.62;6.87;;;;;;;16.58;42.02;100010.63;4476741;31;33636;-87
2021/04/12 07:29:39;;;;;;;13.18;6.65;;;;;;;16.84;41.50;100000.94;4443751;32;34748;-87
2021/04/12 07:32:31;;;;;;;14.93;5.62;;;;;;;16.91;41.19;99990.72;4478266;31;35171;-86
2021/04/12 07:35:13;;;;;;;10.00;4.45;;;;;;;17.29;41.02;99982.81;4475289;32;33346;-86
2021/04/12 07:38:00;;;;;;;6.72;4.47;;;;;;;16.99;40.91;99978.56;4478781;31;31273;-86
2021/04/12 07:40:48;;;;;;;13.10;3.50;;;;;;;17.24;40.66;99985.78;4476122;32;32985;-87
2021/04/12 07:43:50;;;;;;;13.70;3.83;;;;;;;17.24;40.32;99982.25;4468913;31;34098;-87
2021/04/12 07:46:36;;;;;;;7.37;3.05;;;;;;;17.37;40.06;99991.97;4475593;32;33898;-86
2021/04/12 07:49:46;;;;;;;5.28;2.50;;;;;;;17.55;40.25;99989.00;4465805;32;35414;-87
2021/04/12 07:52:40;;;;;;;8.18;2.85;;;;;;;17.46;40.24;99989.62;4451024;32;34891;-87
2021/04/12 07:55:23;;;;;;;6.87;2.92;;;;;;;17.87;39.41;99989.44;4450132;32;33871;-87
2021/04/12 07:58:12;;;;;;;9.13;3.03;;;;;;;18.02;39.60;99991.00;4464252;32;34257;-87
2021/04/12 08:01:17;;;;;;;9.45;3.10;;;;;;;18.11;38.53;99995.69;4465178;32;34019;-88
2021/04/12 08:03:48;;;;;;;5.30;2.62;;;;;;;18.09;39.81;100003.00;4476859;32;33411;-88
2021/04/12 08:06:40;;;;;;;4.97;2.50;;;;;;;18.25;39.13;99994.72;4474733;32;35511;-88
2021/04/12 08:09:38;;;;;;;7.28;2.37;;;;;;;18.48;38.53;99990.38;4466748;32;34176;-87
2021/04/12 08:13:09;;;;;;;4.93;2.17;;;;;;;18.54;39.11;99987.22;4467081;32;33858;-88
2021/04/12 08:16:01;;;;;;;7.50;2.30;;;;;;;18.40;38.69;99995.41;4456573;32;35794;-87
2021/04/12 08:18:56;;;;;;;5.10;2.45;;;;;;;18.60;38.95;99986.78;4465251;32;33028;-88
2021/04/12 08:22:05;;;;;;;15.82;2.35;;;;;;;19.02;38.08;100002.44;4474106;32;32895;-89
2021/04/12 08:24:55;;;;;;;9.27;2.50;;;;;;;19.42;36.78;99992.22;4463173;31;34806;-87
2021/04/12 08:27:37;;;;;;;5.15;1.92;;;;;;;18.97;38.28;99999.25;4474245;31;33663;-87
2021/04/12 08:30:26;;;;;;;6.50;2.65;;;;;;;18.84;38.07;99999.31;4476514;32;34743;-88
2021/04/12 08:33:12;;;;;;;2.72;1.90;;;;;;;18.58;37.64;100010.09;4477218;32;34547;-88
2021/04/12 08:36:31;;;;;;;15.73;3.45;;;;;;;18.73;38.30;99996.59;4466027;32;35917;-88
2021/04/12 08:39:07;;;;;;;12.93;3.12;;;;;;;18.99;37.67;99986.59;4439437;32;33760;-88
2021/04/12 08:42:03;;;;;;;6.82;2.95;;;;;;;19.27;36.71;99985.34;4462606;31;34351;-88
2021/04/12 08:44:42;;;;;;;3.05;1.95;;;;;;;19.44;36.70;99988.44;4467747;32;34695;-89
2021/04/12 08:47:45;;;;;;;6.28;2.67;;;;;;;19.75;35.90;99985.22;4476083;31;33369;-88
2021/04/12 08:50:15;;;;;;;7.07;2.10;;;;;;;19.63;36.07;99987.06;4456202;31;34878;-88
2021/04/12 08:53:20;;;;;;;5.40;2.45;;;;;;;19.60;36.18;99988.13;4467359;32;36028;-89
2021/04/12 08:56:41;;;;;;;11.15;2.80;;;;;;;19.76;35.18;99982.44;4472321;32;34563;-88
2021/04/12 08:59:48;;;;;;;8.52;2.67;;;;;;;19.95;34.91;99973.78;4464170;32;34518;-89
2021/04/12 09:02:55;;;;;;;5.32;2.58;;;;;;;20.50;34.41;99972.00;4477641;32;33570;-88
2021/04/12 09:05:36;;;;;;;8.98;2.58;;;;;;;20.51;34.42;99956.78;4477050;32;33880;-86
2021/04/12 09:08:42;;;;;;;5.32;2.03;;;;;;;21.13;33.64;99946.16;4463162;32;33910;-86
2021/04/12 09:11:35;;;;;;;7.80;2.00;;;;;;;21.13;34.60;99942.63;4475816;32;34138;-86
2021/04/12 09:14:34;;;;;;;5.60;2.00;;;;;;;21.04;34.04;99944.25;4453183;32;35440;-86
2021/04/12 09:17:11;;;;;;;7.35;2.67;;;;;;;20.89;35.50;99934.81;4478431;31;34509;-86
2021/04/12 09:19:57;;;;;;;9.18;1.98;;;;;;;21.33;34.46;99938.25;4472486;31;34054;-89
2021/04/12 09:22:33;;;;;;;5.47;1.60;;;;;;;21.54;33.44;99936.38;4471988;31;33631;-86
2021/04/12 09:25:42;;;;;;;6.85;1.92;;;;;;;21.95;33.31;99923.81;4473069;32;33098;-86
2021/04/12 09:28:25;;;;;;;2.85;2.00;;;;;;;21.96;33.88;99917.44;4468579;32;33514;-86
2021/04/12 09:31:30;;;;;;;7.07;1.48;;;;;;;21.81;34.71;99916.13;4475867;32;33868;-86
2021/04/12 09:34:20;;;;;;;4.55;1.42;;;;;;;22.26;34.21;99918.41;4477084;32;33591;-87
2021/04/12 09:37:11;;;;;;;4.68;2.12;;;;;;;22.07;35.09;99914.63;4476552;32;35191;-87
2021/04/12 09:40:30;;;;;;;5.80;1.50;;;;;;;21.32;35.75;99932.03;4476210;32;32714;-86
2021/04/12 09:43:03;;;;;;;3.12;1.30;;;;;;;21.67;35.49;99915.50;4420321;32;32504;-87
2021/04/12 09:45:52;;;;;;;6.15;1.50;;;;;;;21.23;35.82;99933.63;4464359;32;33597;-88
2021/04/12 09:48:50;;;;;;;6.65;1.95;;;;;;;21.21;36.36;99924.84;4478965;31;33427;-87
2021/04/12 09:51:33;;;;;;;4.12;1.65;;;;;;;21.47;36.53;99919.09;4477959;32;35460;-87
2021/04/12 09:54:29;;;;;;;3.72;1.62;;;;;;;21.70;35.85;99909.87;4478458;32;33841;-87
2021/04/12 09:57:06;;;;;;;3.12;1.58;;;;;;;21.93;35.87;99905.16;4466910;31;33688;-87
2021/04/12 09:59:51;;;;;;;4.45;1.52;;;;;;;22.08;34.74;99900.22;4478684;32;34818;-87
2021/04/12 10:02:19;;;;;;;2.45;1.35;;;;;;;22.14;34.74;99899.69;4479159;31;34418;-87
2021/04/12 10:04:57;;;;;;;9.90;1.75;;;;;;;21.79;35.77;99901.97;4465691;32;31703;-87
2021/04/12 10:07:48;;;;;;;3.72;1.33;;;;;;;22.27;35.80;99893.22;4449952;32;33908;-88
2021/04/12 10:10:39;;;;;;;5.12;1.42;;;;;;;22.45;34.08;99881.59;4475264;31;34690;-87
2021/04/12 10:13:23;;;;;;;2.95;1.02;;;;;;;22.37;33.90;99896.78;4446335;32;33649;-87
2021/04/12 10:16:11;;;;;;;3.05;1.52;;;;;;;23.04;34.01;99878.91;4454341;32;33661;-87
2021/04/12 10:18:46;;;;;;;7.70;1.50;;;;;;;23.20;33.08;99884.53;4474958;32;33421;-86
2021/04/12 10:21:18;;;;;;;2.80;1.10;;;;;;;22.68;33.77;99884.84;4466522;32;33260;-87
2021/04/12 10:23:51;;;;;;;5.75;1.60;;;;;;;22.62;33.46;99871.13;4462623;32;33885;-87
2021/04/12 10:26:37;;;;;;;4.53;2.25;;;;;;;22.65;34.34;99874.41;4477854;32;34493;-89
2021/04/12 10:29:09;;;;;;;4.53;1.45;;;;;;;23.19;33.65;99872.91;4479080;32;32644;-88
2021/04/12 10:31:40;;;;;;;4.72;1.70;;;;;;;23.65;31.79;99859.59;4459161;32;35342;-87
2021/04/12 10:34:08;;;;;;;7.28;1.08;;;;;;;23.36;33.49;99862.34;4476749;32;33250;-86
2021/04/12 10:36:49;;;;;;;4.32;1.15;;;;;;;23.02;33.65;99862.88;4474226;32;32680;-87
2021/04/12 10:39:32;;;;;;;7.12;1.10;;;;;;;23.72;33.75;99864.22;4452098;32;34223;-88
2021/04/12 10:42:16;;;;;;;4.05;1.15;;;;;;;23.12;33.43;99858.34;4462900;32;33532;-87
2021/04/12 10:44:54;;;;;;;3.40;0.90;;;;;;;23.57;34.03;99860.28;4464029;32;33436;-87
2021/04/12 10:47:23;;;;;;;5.90;1.05;;;;;;;23.19;33.54;99859.44;4478329;32;33102;-87
2021/04/12 10:50:22;;;;;;;3.17;0.93;;;;;;;23.38;33.94;99855.84;4463161;32;34574;-87
2021/04/12 10:53:19;;;;;;;6.45;0.68;;;;;;;23.58;34.02;99845.81;4459707;32;33731;-86
2021/04/12 10:55:47;;;;;;;1.05;0.73;;;;;;;23.31;33.69;99849.34;4451682;32;35716;-88
2021/04/12 10:58:24;;;;;;;2.25;0.80;;;;;;;23.37;34.14;99847.91;4449988;32;30262;-87
2021/04/12 11:01:05;;;;;;;3.20;0.77;;;;;;;23.36;33.02;99851.56;4475243;31;34701;-87
2021/04/12 11:04:04;;;;;;;3.80;1.20;;;;;;;22.92;33.63;99856.66;4488415;31;32818;-91
2021/04/12 11:07:11;;;;;;;2.97;0.75;;;;;;;23.04;34.60;99855.53;4412791;32;33634;-90
2021/04/12 11:09:55;;;;;;;3.12;0.82;;;;;;;23.05;33.35;99846.44;4443766;32;32887;-90
2021/04/12 11:12:37;;;;;;;2.80;0.90;;;;;;;23.21;34.67;99843.97;4431402;32;34547;-92
2021/04/12 11:15:35;;;;;;;3.80;1.10;;;;;;;23.31;34.16;99840.41;4350507;32;34533;-90
2021/04/12 11:18:28;;;;;;;1.83;0.95;;;;;;;23.22;33.39;99834.91;4372053;32;33600;-91
2021/04/12 11:21:18;;;;;;;7.60;1.57;;;;;;;23.34;32.82;99840.13;4362688;32;32800;-89
2021/04/12 11:24:20;;;;;;;5.40;1.48;;;;;;;23.66;32.91;99832.47;4345380;32;34515;-88
2021/04/12 11:27:24;;;;;;;2.90;1.20;;;;;;;24.02;32.83;99824.44;4371854;32;33844;-90
2021/04/12 11:29:57;;;;;;;5.43;1.20;;;;;;;24.32;30.90;99822.41;4354395;32;142035;-89
2021/04/12 11:32:46;;;;;;;3.22;1.20;;;;;;;24.34;32.61;99831.16;4374373;32;33650;-89
2021/04/12 11:35:19;;;;;;;3.33;1.23;;;;;;;24.69;31.35;99827.63;4360138;32;36846;-89
2021/04/12 11:37:59;;;;;;;3.30;1.30;;;;;;;24.84;29.96;99822.50;4373207;32;35969;-89
2021/04/12 11:40:30;;;;;;;5.30;2.10;;;;;;;25.16;30.28;99811.94;4358702;32;33799;-89
2021/04/12 11:43:08;;;;;;;6.57;1.33;;;;;;;24.82;30.71;99813.69;4346910;32;32575;-89
2021/04/12 11:45:41;;;;;;;4.43;1.30;;;;;;;24.53;30.60;99815.69;4375286;32;32582;-88
2021/04/12 11:48:14;;;;;;;4.50;1.30;;;;;;;23.83;31.16;99819.19;4372659;32;35526;-88
2021/04/12 11:50:45;;;;;;;;;;;;;;;23.68;32.92;99811.59;4348606;32;34579;-89
2021/04/12 11:53:27;;;;;;;2.53;1.27;;;;;;;24.41;30.73;99800.75;4360055;32;32252;-89
2021/04/12 11:56:15;;;;;;;5.00;1.33;;;;;;;24.04;32.01;99798.19;4360473;32;33612;-88
2021/04/12 11:59:08;;;;;;;6.80;1.62;;;;;;;24.19;30.76;99799.34;4359525;32;31796;-90
2021/04/12 12:01:36;;;;;;;9.95;1.67;;;;;;;24.08;31.07;99799.56;4360782;32;33459;-89
2021/04/12 12:04:57;;;;;;;2.78;1.20;;;;;;;23.35;31.76;99802.22;4367639;32;32520;-89
2021/04/12 12:07:35;;;;;;;4.78;1.60;;;;;;;23.82;30.97;99798.59;4364160;32;35838;-89
2021/04/12 12:10:25;;;;;;;9.30;1.92;;;;;;;23.64;31.14;99796.75;4357608;32;36869;-89
2021/04/12 12:12:56;;;;;;;5.93;2.00;;;;;;;23.42;32.00;99807.91;4360724;32;33599;-89
2021/04/12 12:16:10;;;;;;;6.80;1.58;;;;;;;23.74;31.32;99802.94;4374419;32;33833;-89
2021/04/12 12:18:43;;;;;;;14.70;1.77;;;;;;;23.54;31.97;99801.28;4360103;32;33422;-89
2021/04/12 12:21:36;;;;;;;6.25;1.75;;;;;;;23.37;31.04;99805.66;4360550;32;34434;-89
2021/04/12 12:24:11;;;;;;;6.65;1.58;;;;;;;22.84;32.15;99802.69;4358694;32;35214;-89
2021/04/12 12:26:45;;;;;;;3.95;2.05;;;;;;;23.08;31.12;99800.38;4371049;32;34576;-89
2021/04/12 12:29:20;;;;;;;3.05;1.50;;;;;;;23.54;30.42;99789.66;4350254;32;34522;-89
2021/04/12 12:32:18;;;;;;;6.87;1.60;;;;;;;23.30;30.72;99792.91;4352134;32;33492;-89
2021/04/12 12:34:55;;;;;;;3.72;1.40;;;;;;;23.46;30.71;99795.81;4367762;32;33692;-89
2021/04/12 12:37:35;;;;;;;6.12;2.05;;;;;;;22.71;31.36;99803.00;4356735;32;34103;-89
2021/04/12 12:40:12;;;;;;;5.85;1.70;;;;;;;22.93;31.17;99788.34;4367672;32;33950;-88
2021/04/12 12:42:44;;;;;;;3.33;1.50;;;;;;;22.84;30.94;99787.37;4359067;32;34137;-90
2021/04/12 12:45:17;;;;;;;4.20;2.05;;;;;;;22.91;32.25;99782.28;4348176;32;33798;-88
2021/04/12 12:47:55;;;;;;;8.80;1.17;;;;;;;22.81;31.76;99787.66;4352229;32;33057;-89
2021/04/12 12:50:31;;;;;;;3.60;1.25;;;;;;;22.70;30.77;99783.31;4358041;32;34090;-88
2021/04/12 12:53:03;;;;;;;5.43;1.33;;;;;;;22.97;31.28;99779.00;4359817;32;33970;-88
2021/04/12 12:55:37;;;;;;;3.53;1.52;;;;;;;23.40;30.65;99778.38;4352985;32;34058;-89
2021/04/12 12:58:07;;;;;;;4.32;1.25;;;;;;;23.27;30.42;99787.84;4352617;32;31838;-89
2021/04/12 13:00:37;;;;;;;11.93;1.50;;;;;;;23.37;30.47;99776.00;4361132;32;34703;-89